Avoca, IA (51521)

01:11 CST le 23 novembre 2014 (GMT -0600)
Harlan Municipal | Change Station
CLOSE
Current Station
Aéroport
Location: Harlan,
Altitude: 1230 ft
Stations météo à proximité

Alt. 1230 ft 41.58 °N, 95.34 °W | Updated 16 minutes ago

Couvert
Couvert
52 ° F
Paraît 52 ° F
N
14
Vent Variable Vent de Sud
Gusts 20 mph

Aujourd'hui
Haut(e) -- | Bas -- ° F
--% Risque de précip.
Hier
Haut(e) -- | Bas -- ° F
Precip. -- pouce
7:19 AM 4:55 PM
Nouvelle lune, 1% visible
Pression 29.58 pouce
Visibilité 7.0 Miles terrestres
Nuages Couvert 400 ft
Point de rosée 52 ° F
Humidité 100%
Précipitations 0.00 pouce
Profondeur de la couche neigeuse Non disponible.
UV 0 sur 12
Pollen .10 sur 12
Qualité de l'air Non disponible.
Flu Activity Non disponible.
METAR KHNR 230655Z AUTO 19012G17KT 7SM OVC004 11/11 A2958 RMK AO2

More Conditions Fewer Conditions

Pression 29.58 pouce
Visibilité 7.0 Miles terrestres
Nuages Couvert 400 ft
Point de rosée 52 ° F
Humidité 100%
Précipitations 0.00 pouce
Profondeur de la couche neigeuse Non disponible.
UV 0 sur 12
Pollen .10 sur 12
Qualité de l'air Non disponible.
Flu Activity Non disponible.
METAR KHNR 230655Z AUTO 19012G17KT 7SM OVC004 11/11 A2958 RMK AO2

More Conditions Fewer Conditions

10-Day Weather Forecast

Almanac

Astronomie

Nov. 23, 2014 Lever Coucher
Temps réel
Crépuscule civil
Crépuscule nautique
Crépuscule astronomique
Lune
Durée de lumière visible
Longueur du jour
Tomorrow will be .
, % of the Moon is Illuminated

Extrêmes aujourd'hui

State Highs State Lows

Community

WunderPhotos

Upload Photos

1,773,024 Photos téléchargées !

WunderBlogs® & News

Nearby

Qualité de l'air

  Qualité de l'air Indice de la qualité de l'air Polluant
Not available.

Épaisseur de neige

Station Depth Altitude

Activité sismique

Ville Distance Mag. Time & Date
Minimum magnitude displayed is 2.5.

Températures des eaux côtières

Lieu Température

Stations météo à proximité